Time,TemperatureF,DewpointF,PressureIn,WindDirection,WindDirectionDegrees,WindSpeedMPH,WindSpeedGustMPH,Humidity,HourlyPrecipIn,Conditions,Clouds,dailyrainin,SoftwareType,DateUTC
2013-01-13 00:00:00,52.2,51.9,29.75,East,91,0.0,7.0,99,0.37,,---,0.27,VWS V14.01,2013-01-13 06:00:00,
2013-01-13 00:02:00,52.2,51.9,29.75,NE,56,3.0,6.0,99,0.30,,---,0.30,VWS V14.01,2013-01-13 06:02:00,
2013-01-13 00:07:00,52.2,51.9,29.75,NE,50,2.0,6.0,99,0.32,,---,0.32,VWS V14.01,2013-01-13 06:07:00,
2013-01-13 00:12:00,52.1,51.8,29.75,East,84,1.0,6.0,99,0.35,,---,0.35,VWS V14.01,2013-01-13 06:12:00,
2013-01-13 00:17:00,52.0,51.7,29.75,ENE,73,4.0,6.0,99,0.39,,---,0.39,VWS V14.01,2013-01-13 06:17:00,
2013-01-13 00:22:00,52.0,51.7,29.73,NE,37,1.0,6.0,99,0.44,,---,0.44,VWS V14.01,2013-01-13 06:22:00,
2013-01-13 00:27:00,52.0,51.7,29.74,North,4,1.0,6.0,99,0.46,,---,0.46,VWS V14.01,2013-01-13 06:27:00,
2013-01-13 00:30:00,52.0,51.7,29.74,NNW,330,1.0,6.0,99,0.46,,---,0.46,VWS V14.01,2013-01-13 06:30:00,
2013-01-13 00:32:00,51.9,51.6,29.74,WNW,300,1.0,2.0,99,0.38,,---,0.48,VWS V14.01,2013-01-13 06:32:00,
2013-01-13 00:37:00,51.8,51.5,29.74,NW,311,0.0,2.0,99,0.41,,---,0.51,VWS V14.01,2013-01-13 06:37:00,
2013-01-13 00:42:00,51.8,51.5,29.74,NE,54,0.0,2.0,99,0.45,,---,0.55,VWS V14.01,2013-01-13 06:42:00,
2013-01-13 00:47:00,51.8,51.5,29.73,ENE,57,6.0,6.0,99,0.50,,---,0.60,VWS V14.01,2013-01-13 06:47:00,
2013-01-13 00:52:00,51.8,51.5,29.73,North,354,0.0,6.0,99,0.55,,---,0.65,VWS V14.01,2013-01-13 06:52:00,
2013-01-13 00:57:00,51.8,51.5,29.74,WNW,284,0.0,6.0,99,0.57,,---,0.67,VWS V14.01,2013-01-13 06:57:00,
2013-01-13 01:00:00,51.8,51.5,29.74,WNW,284,0.0,6.0,99,0.58,,---,0.68,VWS V14.01,2013-01-13 07:00:00,
2013-01-13 01:02:00,51.7,51.4,29.74,North,352,1.0,1.0,99,0.45,,---,0.72,VWS V14.01,2013-01-13 07:02:00,
2013-01-13 01:07:00,51.8,51.5,29.73,East,82,0.0,4.0,99,0.48,,---,0.75,VWS V14.01,2013-01-13 07:07:00,
2013-01-13 01:12:00,51.9,51.6,29.73,NNE,22,0.0,5.0,99,0.49,,---,0.76,VWS V14.01,2013-01-13 07:12:00,
2013-01-13 01:17:00,51.9,51.6,29.72,North,9,0.0,5.0,99,0.53,,---,0.80,VWS V14.01,2013-01-13 07:17:00,
2013-01-13 01:22:00,51.9,51.6,29.73,East,96,2.0,7.0,99,0.57,,---,0.84,VWS V14.01,2013-01-13 07:22:00,
2013-01-13 01:27:00,51.9,51.6,29.73,NE,49,0.0,7.0,99,0.60,,---,0.87,VWS V14.01,2013-01-13 07:27:00,
2013-01-13 01:30:00,51.9,51.6,29.73,WSW,250,1.0,7.0,99,0.60,,---,0.87,VWS V14.01,2013-01-13 07:30:00,
2013-01-13 01:32:00,51.9,51.6,29.73,NW,319,1.0,4.0,99,0.45,,---,0.91,VWS V14.01,2013-01-13 07:32:00,
2013-01-13 01:37:00,51.9,51.6,29.73,NE,43,0.0,4.0,99,0.50,,---,0.96,VWS V14.01,2013-01-13 07:37:00,
2013-01-13 01:42:00,52.0,51.7,29.74,West,263,3.0,6.0,99,0.52,,---,0.98,VWS V14.01,2013-01-13 07:42:00,
2013-01-13 01:47:00,52.1,51.8,29.73,NNW,348,3.0,6.0,99,0.54,,---,1.00,VWS V14.01,2013-01-13 07:47:00,
2013-01-13 01:52:00,52.0,51.7,29.72,NE,37,5.0,7.0,99,0.55,,---,1.01,VWS V14.01,2013-01-13 07:52:00,
2013-01-13 01:57:00,50.2,49.7,29.72,SE,134,0.0,10.0,98,0.57,,---,1.03,VWS V14.01,2013-01-13 07:57:00,
2013-01-13 02:00:00,50.0,49.5,29.72,WSW,242,5.0,10.0,98,0.57,,---,1.03,VWS V14.01,2013-01-13 08:00:00,
2013-01-13 02:02:00,48.9,48.1,29.74,WNW,294,3.0,8.0,97,0.36,,---,1.04,VWS V14.01,2013-01-13 08:02:00,
2013-01-13 02:07:00,47.9,47.1,29.75,WNW,296,2.0,8.0,97,0.40,,---,1.08,VWS V14.01,2013-01-13 08:07:00,
2013-01-13 02:12:00,46.9,46.1,29.75,WNW,303,5.0,13.0,97,0.45,,---,1.13,VWS V14.01,2013-01-13 08:12:00,
2013-01-13 02:17:00,45.9,44.8,29.75,South,190,1.0,13.0,96,0.47,,---,1.15,VWS V14.01,2013-01-13 08:17:00,
2013-01-13 02:22:00,45.3,44.5,29.75,NNW,346,5.0,13.0,97,0.48,,---,1.16,VWS V14.01,2013-01-13 08:22:00,
2013-01-13 02:27:00,44.8,44.0,29.74,NNW,344,1.0,13.0,97,0.48,,---,1.16,VWS V14.01,2013-01-13 08:27:00,
2013-01-13 02:30:00,44.7,43.9,29.74,NNW,348,2.0,13.0,97,0.49,,---,1.17,VWS V14.01,2013-01-13 08:30:00,
2013-01-13 02:32:00,44.4,43.6,29.74,North,9,0.0,5.0,97,0.30,,---,1.17,VWS V14.01,2013-01-13 08:32:00,
2013-01-13 02:37:00,44.0,43.2,29.75,NNW,338,3.0,5.0,97,0.31,,---,1.18,VWS V14.01,2013-01-13 08:37:00,
2013-01-13 02:42:00,43.7,42.9,29.74,NNW,333,2.0,6.0,97,0.31,,---,1.18,VWS V14.01,2013-01-13 08:42:00,
2013-01-13 02:47:00,43.5,42.7,29.74,NW,315,2.0,11.0,97,0.34,,---,1.21,VWS V14.01,2013-01-13 08:47:00,
2013-01-13 02:52:00,43.2,42.4,29.75,WNW,297,1.0,11.0,97,0.37,,---,1.24,VWS V14.01,2013-01-13 08:52:00,
2013-01-13 02:57:00,42.9,42.1,29.75,NNW,340,0.0,11.0,97,0.38,,---,1.25,VWS V14.01,2013-01-13 08:57:00,
2013-01-13 03:00:00,42.9,42.1,29.75,ENE,60,7.0,11.0,97,0.38,,---,1.25,VWS V14.01,2013-01-13 09:00:00,
2013-01-13 03:02:00,42.7,41.9,29.75,WNW,299,4.0,7.0,97,0.23,,---,1.26,VWS V14.01,2013-01-13 09:02:00,
2013-01-13 03:07:00,42.5,41.7,29.73,NNE,19,3.0,7.0,97,0.25,,---,1.28,VWS V14.01,2013-01-13 09:07:00,
2013-01-13 03:12:00,42.2,41.4,29.74,West,266,2.0,11.0,97,0.28,,---,1.31,VWS V14.01,2013-01-13 09:12:00,
2013-01-13 03:17:00,42.2,41.4,29.76,West,268,2.0,11.0,97,0.31,,---,1.34,VWS V14.01,2013-01-13 09:17:00,
2013-01-13 03:22:00,42.0,41.2,29.78,WNW,297,0.0,11.0,97,0.34,,---,1.37,VWS V14.01,2013-01-13 09:22:00,
2013-01-13 03:27:00,41.9,41.1,29.78,NNE,23,3.0,11.0,97,0.36,,---,1.39,VWS V14.01,2013-01-13 09:27:00,
2013-01-13 03:30:00,41.9,41.1,29.77,NW,309,0.0,11.0,97,0.36,,---,1.39,VWS V14.01,2013-01-13 09:30:00,
2013-01-13 03:32:00,41.8,41.0,29.77,NNW,330,1.0,3.0,97,0.24,,---,1.41,VWS V14.01,2013-01-13 09:32:00,
2013-01-13 03:37:00,41.7,40.9,29.75,WNW,294,1.0,8.0,97,0.25,,---,1.42,VWS V14.01,2013-01-13 09:37:00,
2013-01-13 03:42:00,41.7,40.9,29.74,NNE,13,2.0,9.0,97,0.26,,---,1.43,VWS V14.01,2013-01-13 09:42:00,
2013-01-13 03:47:00,41.7,41.2,29.74,WSW,248,0.0,9.0,98,0.27,,---,1.44,VWS V14.01,2013-01-13 09:47:00,
2013-01-13 03:52:00,41.8,41.3,29.75,North,6,5.0,9.0,98,0.28,,---,1.45,VWS V14.01,2013-01-13 09:52:00,
2013-01-13 03:57:00,41.8,41.0,29.73,ENE,72,2.0,9.0,97,0.29,,---,1.46,VWS V14.01,2013-01-13 09:57:00,
2013-01-13 04:00:00,41.8,41.0,29.73,ESE,114,1.0,9.0,97,0.29,,---,1.46,VWS V14.01,2013-01-13 10:00:00,
2013-01-13 04:02:00,41.8,41.0,29.74,NE,37,1.0,5.0,97,0.21,,---,1.46,VWS V14.01,2013-01-13 10:02:00,
2013-01-13 04:07:00,41.9,41.4,29.73,SE,128,2.0,7.0,98,0.22,,---,1.47,VWS V14.01,2013-01-13 10:07:00,
2013-01-13 04:12:00,41.9,41.4,29.72,NE,50,0.0,7.0,98,0.23,,---,1.48,VWS V14.01,2013-01-13 10:12:00,
2013-01-13 04:17:00,41.9,41.1,29.72,ENE,71,5.0,7.0,97,0.23,,---,1.48,VWS V14.01,2013-01-13 10:17:00,
2013-01-13 04:22:00,41.9,41.1,29.73,NE,54,1.0,8.0,97,0.24,,---,1.49,VWS V14.01,2013-01-13 10:22:00,
2013-01-13 04:27:00,41.9,41.1,29.74,East,79,5.0,8.0,97,0.24,,---,1.49,VWS V14.01,2013-01-13 10:27:00,
2013-01-13 04:30:00,41.9,41.1,29.74,SE,127,1.0,8.0,97,0.24,,---,1.49,VWS V14.01,2013-01-13 10:30:00,
2013-01-13 04:32:00,41.9,41.1,29.74,SE,134,3.0,4.0,97,0.10,,---,1.49,VWS V14.01,2013-01-13 10:32:00,
2013-01-13 04:37:00,42.0,41.2,29.75,NNW,340,0.0,4.0,97,0.10,,---,1.49,VWS V14.01,2013-01-13 10:37:00,
2013-01-13 04:42:00,41.9,41.1,29.75,East,90,1.0,4.0,97,0.11,,---,1.50,VWS V14.01,2013-01-13 10:42:00,
2013-01-13 04:47:00,41.9,41.1,29.76,ENE,75,0.0,4.0,97,0.11,,---,1.50,VWS V14.01,2013-01-13 10:47:00,
2013-01-13 04:52:00,41.9,41.1,29.76,West,262,0.0,4.0,97,0.11,,---,1.50,VWS V14.01,2013-01-13 10:52:00,
2013-01-13 04:57:00,42.0,41.5,29.78,WNW,287,0.0,4.0,98,0.11,,---,1.50,VWS V14.01,2013-01-13 10:57:00,
2013-01-13 05:00:00,42.0,41.5,29.77,WNW,287,0.0,4.0,98,0.11,,---,1.50,VWS V14.01,2013-01-13 11:00:00,
2013-01-13 05:02:00,42.1,41.6,29.80,West,281,4.0,7.0,98,0.04,,---,1.50,VWS V14.01,2013-01-13 11:02:00,
2013-01-13 05:07:00,42.1,41.6,29.81,NW,309,5.0,9.0,98,0.04,,---,1.50,VWS V14.01,2013-01-13 11:07:00,
2013-01-13 05:12:00,42.1,41.6,29.80,NNW,333,0.0,9.0,98,0.04,,---,1.50,VWS V14.01,2013-01-13 11:12:00,
2013-01-13 05:17:00,42.0,41.2,29.80,NW,321,1.0,9.0,97,0.04,,---,1.50,VWS V14.01,2013-01-13 11:17:00,
2013-01-13 05:22:00,42.0,41.2,29.80,NNW,329,1.0,9.0,97,0.04,,---,1.50,VWS V14.01,2013-01-13 11:22:00,
2013-01-13 05:27:00,42.0,41.2,29.80,WNW,287,2.0,9.0,97,0.04,,---,1.50,VWS V14.01,2013-01-13 11:27:00,
2013-01-13 05:30:00,41.9,41.1,29.79,WNW,298,3.0,9.0,97,0.04,,---,1.50,VWS V14.01,2013-01-13 11:30:00,
2013-01-13 05:32:00,42.0,41.2,29.80,East,82,0.0,5.0,97,0.01,,---,1.50,VWS V14.01,2013-01-13 11:32:00,
2013-01-13 05:37:00,42.0,41.2,29.81,NW,323,2.0,5.0,97,0.01,,---,1.50,VWS V14.01,2013-01-13 11:37:00,
2013-01-13 05:42:00,41.9,41.1,29.81,NW,305,1.0,5.0,97,0.01,,---,1.50,VWS V14.01,2013-01-13 11:42:00,
2013-01-13 05:47:00,41.8,41.0,29.82,NW,309,1.0,7.0,97,0.01,,---,1.50,VWS V14.01,2013-01-13 11:47:00,
2013-01-13 05:52:00,41.5,40.7,29.82,West,274,1.0,7.0,97,0.01,,---,1.50,VWS V14.01,2013-01-13 11:52:00,
2013-01-13 05:57:00,41.3,40.5,29.82,NNE,22,0.0,7.0,97,0.01,,---,1.50,VWS V14.01,2013-01-13 11:57:00,
2013-01-13 06:00:00,41.2,40.4,29.82,NNE,33,0.0,7.0,97,0.01,,---,1.50,VWS V14.01,2013-01-13 12:00:00,
2013-01-13 06:02:00,41.1,40.3,29.82,ENE,75,0.0,2.0,97,0.00,,---,1.50,VWS V14.01,2013-01-13 12:02:00,
2013-01-13 06:07:00,40.9,40.1,29.81,NE,36,2.0,3.0,97,0.00,,---,1.50,VWS V14.01,2013-01-13 12:07:00,
2013-01-13 06:12:00,40.8,40.0,29.81,WNW,284,0.0,3.0,97,0.00,,---,1.50,VWS V14.01,2013-01-13 12:12:00,
2013-01-13 06:17:00,40.7,39.9,29.81,NNW,330,2.0,3.0,97,0.00,,---,1.50,VWS V14.01,2013-01-13 12:17:00,
2013-01-13 06:22:00,40.5,39.7,29.80,SE,138,1.0,3.0,97,0.00,,---,1.50,VWS V14.01,2013-01-13 12:22:00,
2013-01-13 06:27:00,40.4,39.6,29.81,NW,308,0.0,3.0,97,0.00,,---,1.50,VWS V14.01,2013-01-13 12:27:00,
2013-01-13 06:30:00,40.4,39.6,29.81,NW,307,0.0,3.0,97,0.00,,---,1.50,VWS V14.01,2013-01-13 12:30:00,
2013-01-13 06:32:00,40.4,39.6,29.82,WNW,301,2.0,3.0,97,0.00,,---,1.50,VWS V14.01,2013-01-13 12:32:00,
2013-01-13 06:37:00,40.4,39.6,29.84,WNW,285,3.0,3.0,97,0.00,,---,1.50,VWS V14.01,2013-01-13 12:37:00,
2013-01-13 06:42:00,40.3,39.5,29.85,NNW,340,3.0,5.0,97,0.00,,---,1.50,VWS V14.01,2013-01-13 12:42:00,
2013-01-13 06:47:00,40.2,39.4,29.85,West,274,0.0,5.0,97,0.00,,---,1.50,VWS V14.01,2013-01-13 12:47:00,
2013-01-13 06:52:00,40.1,39.3,29.84,NW,304,0.0,5.0,97,0.00,,---,1.50,VWS V14.01,2013-01-13 12:52:00,
2013-01-13 06:57:00,40.1,39.3,29.81,ESE,122,0.0,5.0,97,0.00,,---,1.50,VWS V14.01,2013-01-13 12:57:00,
2013-01-13 07:00:00,40.1,39.3,29.81,NW,315,2.0,5.0,97,0.00,,---,1.50,VWS V14.01,2013-01-13 13:00:00,
2013-01-13 07:02:00,40.1,39.3,29.83,West,281,0.0,3.0,97,0.00,,---,1.50,VWS V14.01,2013-01-13 13:02:00,
2013-01-13 07:07:00,40.1,39.3,29.85,West,281,3.0,3.0,97,0.00,,---,1.50,VWS V14.01,2013-01-13 13:07:00,
2013-01-13 07:12:00,40.1,39.3,29.86,SSW,198,1.0,3.0,97,0.00,,---,1.50,VWS V14.01,2013-01-13 13:12:00,
2013-01-13 07:17:00,40.1,39.3,29.87,WNW,284,1.0,3.0,97,0.00,,---,1.50,VWS V14.01,2013-01-13 13:17:00,
2013-01-13 07:22:00,40.1,39.3,29.86,WNW,297,0.0,3.0,97,0.00,,---,1.50,VWS V14.01,2013-01-13 13:22:00,
2013-01-13 07:27:00,40.1,39.3,29.87,WNW,285,1.0,3.0,97,0.00,,---,1.50,VWS V14.01,2013-01-13 13:27:00,
2013-01-13 07:30:00,40.1,39.3,29.87,WNW,285,0.0,3.0,97,0.00,,---,1.50,VWS V14.01,2013-01-13 13:30:00,
2013-01-13 07:32:00,40.1,39.3,29.88,West,281,1.0,3.0,97,0.00,,---,1.50,VWS V14.01,2013-01-13 13:32:00,
2013-01-13 07:37:00,40.1,39.3,29.88,West,277,1.0,3.0,97,0.00,,---,1.50,VWS V14.01,2013-01-13 13:37:00,
2013-01-13 07:42:00,40.2,39.4,29.89,West,271,2.0,3.0,97,0.00,,---,1.50,VWS V14.01,2013-01-13 13:42:00,
2013-01-13 07:47:00,40.3,39.5,29.88,SW,224,0.0,3.0,97,0.00,,---,1.50,VWS V14.01,2013-01-13 13:47:00,
2013-01-13 07:52:00,40.3,39.5,29.88,SW,224,0.0,3.0,97,0.00,,---,1.50,VWS V14.01,2013-01-13 13:52:00,
2013-01-13 07:57:00,40.3,39.5,29.88,WNW,287,2.0,3.0,97,0.00,,---,1.50,VWS V14.01,2013-01-13 13:57:00,
2013-01-13 08:00:00,40.2,39.2,29.88,WNW,286,0.0,3.0,96,0.00,,---,1.50,VWS V14.01,2013-01-13 14:00:00,
2013-01-13 08:02:00,40.2,39.2,29.87,WNW,288,0.0,1.0,96,0.00,,---,1.50,VWS V14.01,2013-01-13 14:02:00,
2013-01-13 08:07:00,40.2,39.2,29.88,WSW,256,1.0,1.0,96,0.00,,---,1.50,VWS V14.01,2013-01-13 14:07:00,
2013-01-13 08:12:00,40.3,39.2,29.88,WNW,286,0.0,2.0,96,0.00,,---,1.50,VWS V14.01,2013-01-13 14:12:00,
2013-01-13 08:17:00,40.2,39.2,29.87,NW,305,0.0,2.0,96,0.00,,---,1.50,VWS V14.01,2013-01-13 14:17:00,
2013-01-13 08:22:00,40.3,39.2,29.87,WNW,287,0.0,2.0,96,0.00,,---,1.50,VWS V14.01,2013-01-13 14:22:00,
2013-01-13 08:27:00,40.3,39.2,29.87,West,269,0.0,2.0,96,0.00,,---,1.50,VWS V14.01,2013-01-13 14:27:00,
2013-01-13 08:30:00,40.3,39.2,29.87,WNW,291,0.0,2.0,96,0.00,,---,1.50,VWS V14.01,2013-01-13 14:30:00,
2013-01-13 08:32:00,40.4,39.3,29.87,South,176,0.0,0.0,96,0.00,,---,1.50,VWS V14.01,2013-01-13 14:32:00,
2013-01-13 08:37:00,40.5,39.5,29.87,WSW,248,1.0,1.0,96,0.00,,---,1.50,VWS V14.01,2013-01-13 14:37:00,
2013-01-13 08:42:00,40.4,39.3,29.87,SW,221,0.0,1.0,96,0.00,,---,1.50,VWS V14.01,2013-01-13 14:42:00,
2013-01-13 08:47:00,40.4,39.1,29.87,WNW,285,0.0,2.0,95,0.00,,---,1.50,VWS V14.01,2013-01-13 14:47:00,
2013-01-13 08:52:00,40.4,39.1,29.88,West,276,0.0,2.0,95,0.00,,---,1.50,VWS V14.01,2013-01-13 14:52:00,
2013-01-13 08:57:00,40.5,39.2,29.88,West,276,0.0,2.0,95,0.00,,---,1.50,VWS V14.01,2013-01-13 14:57:00,
2013-01-13 09:00:00,40.5,39.2,29.87,West,276,0.0,2.0,95,0.00,,---,1.50,VWS V14.01,2013-01-13 15:00:00,
2013-01-13 09:02:00,40.5,39.2,29.86,SE,143,0.0,0.0,95,0.00,,---,1.50,VWS V14.01,2013-01-13 15:02:00,
2013-01-13 09:07:00,40.6,39.3,29.87,SW,225,0.0,0.0,95,0.00,,---,1.50,VWS V14.01,2013-01-13 15:07:00,
2013-01-13 09:12:00,40.6,39.3,29.87,SW,225,0.0,0.0,95,0.00,,---,1.50,VWS V14.01,2013-01-13 15:12:00,
2013-01-13 09:17:00,40.7,39.4,29.89,West,281,2.0,2.0,95,0.00,,---,1.50,VWS V14.01,2013-01-13 15:17:00,
2013-01-13 09:22:00,40.7,39.7,29.90,West,279,1.0,4.0,96,0.00,,---,1.50,VWS V14.01,2013-01-13 15:22:00,
2013-01-13 09:27:00,40.7,39.7,29.90,WSW,253,1.0,4.0,96,0.00,,---,1.50,VWS V14.01,2013-01-13 15:27:00,
2013-01-13 09:30:00,40.7,39.7,29.90,West,276,2.0,4.0,96,0.00,,---,1.50,VWS V14.01,2013-01-13 15:30:00,
2013-01-13 09:32:00,40.6,39.5,29.89,West,260,0.0,6.0,96,0.00,,---,1.50,VWS V14.01,2013-01-13 15:32:00,
2013-01-13 09:37:00,40.5,39.5,29.89,West,278,0.0,6.0,96,0.00,,---,1.50,VWS V14.01,2013-01-13 15:37:00,
2013-01-13 09:42:00,40.4,39.3,29.89,WNW,297,1.0,6.0,96,0.00,,---,1.50,VWS V14.01,2013-01-13 15:42:00,
2013-01-13 09:47:00,40.3,39.2,29.90,WNW,283,5.0,6.0,96,0.00,,---,1.50,VWS V14.01,2013-01-13 15:47:00,
2013-01-13 09:52:00,40.2,39.2,29.89,West,274,1.0,6.0,96,0.00,,---,1.50,VWS V14.01,2013-01-13 15:52:00,
2013-01-13 09:57:00,40.1,39.0,29.89,West,270,0.0,6.0,96,0.00,,---,1.50,VWS V14.01,2013-01-13 15:57:00,
2013-01-13 10:00:00,40.1,39.3,29.89,West,280,1.0,6.0,97,0.00,,---,1.50,VWS V14.01,2013-01-13 16:00:00,
2013-01-13 10:02:00,40.1,39.3,29.89,WSW,257,1.0,2.0,97,0.00,,---,1.50,VWS V14.01,2013-01-13 16:02:00,
2013-01-13 10:07:00,40.2,39.4,29.89,West,266,0.0,3.0,97,0.00,,---,1.50,VWS V14.01,2013-01-13 16:07:00,
2013-01-13 10:12:00,40.2,39.4,29.89,West,266,0.0,3.0,97,0.01,,---,1.51,VWS V14.01,2013-01-13 16:12:00,
2013-01-13 10:17:00,40.1,39.3,29.90,WNW,283,2.0,4.0,97,0.01,,---,1.51,VWS V14.01,2013-01-13 16:17:00,
2013-01-13 10:22:00,40.2,39.4,29.89,WNW,290,1.0,4.0,97,0.01,,---,1.51,VWS V14.01,2013-01-13 16:22:00,
2013-01-13 10:27:00,40.1,39.3,29.90,West,260,1.0,4.0,97,0.01,,---,1.51,VWS V14.01,2013-01-13 16:27:00,
2013-01-13 10:30:00,40.1,39.3,29.90,WNW,283,5.0,6.0,97,0.01,,---,1.51,VWS V14.01,2013-01-13 16:30:00,
2013-01-13 10:32:00,40.0,39.2,29.90,West,276,0.0,5.0,97,0.01,,---,1.51,VWS V14.01,2013-01-13 16:32:00,
2013-01-13 10:37:00,40.0,39.2,29.89,WNW,285,6.0,7.0,97,0.01,,---,1.51,VWS V14.01,2013-01-13 16:37:00,
2013-01-13 10:42:00,40.0,39.2,29.90,West,276,2.0,7.0,97,0.01,,---,1.51,VWS V14.01,2013-01-13 16:42:00,
2013-01-13 10:47:00,40.0,39.2,29.90,WSW,255,2.0,7.0,97,0.01,,---,1.51,VWS V14.01,2013-01-13 16:47:00,
2013-01-13 10:52:00,40.1,39.6,29.89,WNW,288,3.0,7.0,98,0.01,,---,1.51,VWS V14.01,2013-01-13 16:52:00,
2013-01-13 10:57:00,40.1,39.3,29.89,West,267,1.0,7.0,97,0.01,,---,1.51,VWS V14.01,2013-01-13 16:57:00,
2013-01-13 11:00:00,40.1,39.3,29.89,West,272,6.0,7.0,97,0.01,,---,1.51,VWS V14.01,2013-01-13 17:00:00,
2013-01-13 11:02:00,40.1,39.3,29.89,West,278,6.0,6.0,97,0.01,,---,1.51,VWS V14.01,2013-01-13 17:02:00,
2013-01-13 11:07:00,40.0,39.2,29.89,WNW,291,2.0,8.0,97,0.01,,---,1.51,VWS V14.01,2013-01-13 17:07:00,
2013-01-13 11:12:00,39.9,39.1,29.89,West,274,3.0,8.0,97,0.01,,---,1.51,VWS V14.01,2013-01-13 17:12:00,
2013-01-13 11:17:00,39.9,39.1,29.88,NW,323,4.0,8.0,97,0.01,,---,1.51,VWS V14.01,2013-01-13 17:17:00,
2013-01-13 11:22:00,39.8,39.0,29.86,NE,51,1.0,8.0,97,0.01,,---,1.51,VWS V14.01,2013-01-13 17:22:00,
2013-01-13 11:27:00,39.7,38.9,29.86,West,274,2.0,8.0,97,0.01,,---,1.51,VWS V14.01,2013-01-13 17:27:00,
2013-01-13 11:30:00,39.8,39.0,29.87,West,276,5.0,8.0,97,0.01,,---,1.51,VWS V14.01,2013-01-13 17:30:00,
2013-01-13 11:32:00,39.7,38.9,29.88,WNW,283,2.0,6.0,97,0.00,,---,1.51,VWS V14.01,2013-01-13 17:32:00,
2013-01-13 11:37:00,39.8,39.0,29.88,West,271,1.0,7.0,97,0.00,,---,1.51,VWS V14.01,2013-01-13 17:37:00,
2013-01-13 11:42:00,39.8,39.0,29.88,West,270,5.0,7.0,97,0.00,,---,1.51,VWS V14.01,2013-01-13 17:42:00,
2013-01-13 11:47:00,39.9,39.1,29.88,WNW,284,3.0,7.0,97,0.00,,---,1.51,VWS V14.01,2013-01-13 17:47:00,
2013-01-13 11:52:00,40.0,39.2,29.89,SW,232,4.0,7.0,97,0.00,,---,1.51,VWS V14.01,2013-01-13 17:52:00,
2013-01-13 11:57:00,40.0,39.2,29.88,West,280,4.0,7.0,97,0.00,,---,1.51,VWS V14.01,2013-01-13 17:57:00,
2013-01-13 12:00:00,40.0,39.2,29.88,West,278,1.0,7.0,97,0.00,,---,1.51,VWS V14.01,2013-01-13 18:00:00,
2013-01-13 12:02:00,40.0,39.2,29.88,West,281,2.0,5.0,97,0.00,,---,1.51,VWS V14.01,2013-01-13 18:02:00,
2013-01-13 12:07:00,40.0,39.2,29.88,WSW,257,2.0,5.0,97,0.00,,---,1.51,VWS V14.01,2013-01-13 18:07:00,
2013-01-13 12:12:00,40.0,39.0,29.89,WNW,291,3.0,7.0,96,0.00,,---,1.51,VWS V14.01,2013-01-13 18:12:00,
2013-01-13 12:17:00,39.9,38.8,29.88,West,276,6.0,8.0,96,0.00,,---,1.51,VWS V14.01,2013-01-13 18:17:00,
2013-01-13 12:22:00,40.0,39.0,29.88,NW,309,4.0,8.0,96,0.00,,---,1.51,VWS V14.01,2013-01-13 18:22:00,
2013-01-13 12:27:00,40.0,39.2,29.88,West,274,3.0,8.0,97,0.00,,---,1.51,VWS V14.01,2013-01-13 18:27:00,
2013-01-13 12:30:00,40.0,39.0,29.89,WNW,297,5.0,8.0,96,0.00,,---,1.51,VWS V14.01,2013-01-13 18:30:00,
2013-01-13 12:32:00,40.0,39.2,29.89,WNW,293,4.0,6.0,97,0.00,,---,1.51,VWS V14.01,2013-01-13 18:32:00,
2013-01-13 12:37:00,39.9,39.1,29.89,WNW,287,3.0,6.0,97,0.00,,---,1.51,VWS V14.01,2013-01-13 18:37:00,
2013-01-13 12:42:00,39.9,39.1,29.89,West,264,1.0,6.0,97,0.00,,---,1.51,VWS V14.01,2013-01-13 18:42:00,
2013-01-13 12:47:00,39.9,39.1,29.89,West,262,3.0,6.0,97,0.00,,---,1.51,VWS V14.01,2013-01-13 18:47:00,
2013-01-13 12:52:00,39.9,39.1,29.88,WNW,293,1.0,8.0,97,0.00,,---,1.51,VWS V14.01,2013-01-13 18:52:00,
2013-01-13 12:57:00,39.9,39.1,29.87,West,259,0.0,8.0,97,0.00,,---,1.51,VWS V14.01,2013-01-13 18:57:00,
2013-01-13 13:00:00,39.9,39.1,29.87,WNW,300,1.0,8.0,97,0.00,,---,1.51,VWS V14.01,2013-01-13 19:00:00,
2013-01-13 13:02:00,39.9,39.1,29.86,NNE,15,0.0,1.0,97,0.00,,---,1.51,VWS V14.01,2013-01-13 19:02:00,
2013-01-13 13:07:00,39.9,39.1,29.86,WNW,284,4.0,4.0,97,0.00,,---,1.51,VWS V14.01,2013-01-13 19:07:00,
2013-01-13 13:12:00,39.9,39.1,29.87,West,276,3.0,4.0,97,0.00,,---,1.51,VWS V14.01,2013-01-13 19:12:00,
2013-01-13 13:17:00,39.9,39.1,29.86,WNW,300,2.0,6.0,97,0.00,,---,1.51,VWS V14.01,2013-01-13 19:17:00,
2013-01-13 13:22:00,39.9,39.1,29.84,WSW,248,0.0,6.0,97,0.00,,---,1.51,VWS V14.01,2013-01-13 19:22:00,
2013-01-13 13:27:00,40.0,39.2,29.84,North,352,1.0,6.0,97,0.00,,---,1.51,VWS V14.01,2013-01-13 19:27:00,
2013-01-13 13:30:00,39.9,39.1,29.83,North,354,0.0,6.0,97,0.00,,---,1.51,VWS V14.01,2013-01-13 19:30:00,
2013-01-13 13:32:00,40.0,39.2,29.83,ENE,74,0.0,1.0,97,0.00,,---,1.51,VWS V14.01,2013-01-13 19:32:00,
2013-01-13 13:37:00,40.0,39.2,29.84,West,274,0.0,1.0,97,0.00,,---,1.51,VWS V14.01,2013-01-13 19:37:00,
2013-01-13 13:42:00,40.0,39.2,29.85,East,79,1.0,2.0,97,0.00,,---,1.51,VWS V14.01,2013-01-13 19:42:00,
2013-01-13 13:47:00,40.0,39.2,29.85,North,359,0.0,2.0,97,0.00,,---,1.51,VWS V14.01,2013-01-13 19:47:00,
2013-01-13 13:52:00,40.1,39.3,29.85,North,358,0.0,2.0,97,0.00,,---,1.51,VWS V14.01,2013-01-13 19:52:00,
2013-01-13 13:57:00,40.1,39.3,29.85,SSW,207,0.0,2.0,97,0.00,,---,1.51,VWS V14.01,2013-01-13 19:57:00,
2013-01-13 14:00:00,40.1,39.3,29.85,NW,308,1.0,2.0,97,0.00,,---,1.51,VWS V14.01,2013-01-13 20:00:00,
2013-01-13 14:02:00,40.1,39.3,29.86,WSW,243,1.0,2.0,97,0.00,,---,1.51,VWS V14.01,2013-01-13 20:02:00,
2013-01-13 14:07:00,40.2,39.4,29.87,NW,317,0.0,2.0,97,0.00,,---,1.51,VWS V14.01,2013-01-13 20:07:00,
2013-01-13 14:12:00,40.2,39.4,29.88,NW,326,0.0,2.0,97,0.00,,---,1.51,VWS V14.01,2013-01-13 20:12:00,
2013-01-13 14:17:00,40.1,39.3,29.88,West,269,1.0,3.0,97,0.00,,---,1.51,VWS V14.01,2013-01-13 20:17:00,
2013-01-13 14:22:00,40.1,39.3,29.89,West,281,1.0,4.0,97,0.00,,---,1.51,VWS V14.01,2013-01-13 20:22:00,
2013-01-13 14:27:00,40.1,39.3,29.89,WNW,288,3.0,4.0,97,0.00,,---,1.51,VWS V14.01,2013-01-13 20:27:00,
2013-01-13 14:30:00,40.0,39.2,29.89,WNW,283,1.0,4.0,97,0.00,,---,1.51,VWS V14.01,2013-01-13 20:30:00,
2013-01-13 14:32:00,40.0,39.2,29.90,WSW,255,1.0,2.0,97,0.00,,---,1.51,VWS V14.01,2013-01-13 20:32:00,
2013-01-13 14:37:00,40.0,39.2,29.90,WNW,300,1.0,3.0,97,0.00,,---,1.51,VWS V14.01,2013-01-13 20:37:00,
2013-01-13 14:42:00,40.0,39.2,29.90,West,278,0.0,3.0,97,0.00,,---,1.51,VWS V14.01,2013-01-13 20:42:00,
2013-01-13 14:47:00,40.0,39.2,29.90,WNW,283,0.0,3.0,97,0.00,,---,1.51,VWS V14.01,2013-01-13 20:47:00,
2013-01-13 14:52:00,39.9,39.1,29.91,NW,316,0.0,3.0,97,0.00,,---,1.51,VWS V14.01,2013-01-13 20:52:00,
2013-01-13 14:56:00,39.9,39.1,29.91,West,270,0.0,5.0,97,0.00,,---,1.51,VWS V14.01,2013-01-13 20:56:00,
2013-01-13 15:00:00,39.8,39.0,29.91,ENE,58,0.0,5.0,97,0.00,,---,1.51,VWS V14.01,2013-01-13 21:00:00,
2013-01-13 15:01:00,39.8,39.0,29.91,NW,311,1.0,2.0,97,0.00,,---,1.51,VWS V14.01,2013-01-13 21:01:00,
2013-01-13 15:06:00,39.7,38.9,29.92,NW,315,1.0,3.0,97,0.00,,---,1.51,VWS V14.01,2013-01-13 21:06:00,
2013-01-13 15:11:00,39.7,38.9,29.92,WNW,299,1.0,3.0,97,0.01,,---,1.52,VWS V14.01,2013-01-13 21:11:00,
2013-01-13 15:16:00,39.7,39.2,29.93,SSW,207,1.0,3.0,98,0.01,,---,1.52,VWS V14.01,2013-01-13 21:16:00,
2013-01-13 15:21:00,39.6,39.1,29.93,West,280,1.0,3.0,98,0.02,,---,1.53,VWS V14.01,2013-01-13 21:21:00,
2013-01-13 15:26:00,39.6,39.1,29.92,West,278,3.0,4.0,98,0.02,,---,1.53,VWS V14.01,2013-01-13 21:26:00,
2013-01-13 15:30:00,39.5,39.0,29.93,West,264,1.0,4.0,98,0.03,,---,1.54,VWS V14.01,2013-01-13 21:30:00,
2013-01-13 15:31:00,39.5,39.0,29.93,WNW,284,1.0,2.0,98,0.03,,---,1.54,VWS V14.01,2013-01-13 21:31:00,
2013-01-13 15:36:00,39.4,38.9,29.94,WNW,288,4.0,5.0,98,0.04,,---,1.55,VWS V14.01,2013-01-13 21:36:00,
2013-01-13 15:41:00,39.3,38.8,29.94,WNW,294,1.0,5.0,98,0.05,,---,1.56,VWS V14.01,2013-01-13 21:41:00,
2013-01-13 15:46:00,39.2,38.7,29.94,West,281,4.0,10.0,98,0.05,,---,1.56,VWS V14.01,2013-01-13 21:46:00,
2013-01-13 15:51:00,39.1,38.6,29.95,NW,318,1.0,10.0,98,0.05,,---,1.56,VWS V14.01,2013-01-13 21:51:00,
2013-01-13 15:56:00,39.0,38.5,29.95,NNW,333,1.0,10.0,98,0.06,,---,1.57,VWS V14.01,2013-01-13 21:56:00,
2013-01-13 16:00:00,39.0,38.5,29.95,NW,307,2.0,10.0,98,0.06,,---,1.57,VWS V14.01,2013-01-13 22:00:00,
2013-01-13 16:01:00,38.9,38.4,29.94,NE,37,1.0,6.0,98,0.07,,---,1.58,VWS V14.01,2013-01-13 22:01:00,
2013-01-13 16:06:00,38.9,38.4,29.94,North,9,1.0,7.0,98,0.07,,---,1.58,VWS V14.01,2013-01-13 22:06:00,
2013-01-13 16:11:00,38.8,38.3,29.94,NW,307,1.0,7.0,98,0.07,,---,1.58,VWS V14.01,2013-01-13 22:11:00,
2013-01-13 16:16:00,38.8,38.3,29.94,WNW,301,2.0,7.0,98,0.07,,---,1.58,VWS V14.01,2013-01-13 22:16:00,
2013-01-13 16:21:00,38.7,38.2,29.95,WNW,297,1.0,7.0,98,0.08,,---,1.59,VWS V14.01,2013-01-13 22:21:00,
2013-01-13 16:26:00,38.7,38.2,29.95,West,264,0.0,7.0,98,0.09,,---,1.60,VWS V14.01,2013-01-13 22:26:00,
2013-01-13 16:30:00,38.6,38.1,29.95,WNW,303,0.0,7.0,98,0.10,,---,1.61,VWS V14.01,2013-01-13 22:30:00,
2013-01-13 16:31:00,38.6,38.1,29.94,West,268,1.0,3.0,98,0.08,,---,1.62,VWS V14.01,2013-01-13 22:31:00,
2013-01-13 16:36:00,38.5,38.0,29.94,WSW,238,0.0,3.0,98,0.09,,---,1.63,VWS V14.01,2013-01-13 22:36:00,
2013-01-13 16:41:00,38.4,37.9,29.94,WNW,298,0.0,3.0,98,0.10,,---,1.64,VWS V14.01,2013-01-13 22:41:00,
2013-01-13 16:46:00,38.3,37.8,29.94,NNW,343,0.0,4.0,98,0.10,,---,1.64,VWS V14.01,2013-01-13 22:46:00,
2013-01-13 16:51:00,38.1,37.6,29.92,NE,41,0.0,4.0,98,0.11,,---,1.65,VWS V14.01,2013-01-13 22:51:00,
2013-01-13 16:56:00,38.0,37.5,29.93,NW,317,2.0,4.0,98,0.11,,---,1.65,VWS V14.01,2013-01-13 22:56:00,
2013-01-13 17:00:00,38.0,37.5,29.93,North,6,0.0,4.0,98,0.12,,---,1.66,VWS V14.01,2013-01-13 23:00:00,
2013-01-13 17:01:00,37.9,37.4,29.93,NNE,12,1.0,1.0,98,0.09,,---,1.66,VWS V14.01,2013-01-13 23:01:00,
2013-01-13 17:06:00,37.9,37.1,29.93,NNW,342,0.0,2.0,97,0.10,,---,1.67,VWS V14.01,2013-01-13 23:06:00,
2013-01-13 17:11:00,37.7,36.9,29.92,ENE,70,0.0,3.0,97,0.11,,---,1.68,VWS V14.01,2013-01-13 23:11:00,
2013-01-13 17:16:00,37.7,36.9,29.93,North,11,0.0,3.0,97,0.12,,---,1.69,VWS V14.01,2013-01-13 23:16:00,
2013-01-13 17:21:00,37.7,37.2,29.94,West,278,4.0,4.0,98,0.12,,---,1.69,VWS V14.01,2013-01-13 23:21:00,
2013-01-13 17:26:00,37.6,37.1,29.94,West,276,0.0,4.0,98,0.12,,---,1.69,VWS V14.01,2013-01-13 23:26:00,
2013-01-13 17:30:00,37.6,37.1,29.94,West,274,1.0,4.0,98,0.13,,---,1.70,VWS V14.01,2013-01-13 23:30:00,
2013-01-13 17:31:00,37.6,37.1,29.95,WNW,297,0.0,2.0,98,0.09,,---,1.70,VWS V14.01,2013-01-13 23:31:00,
2013-01-13 17:36:00,37.6,37.1,29.95,WNW,300,0.0,3.0,98,0.09,,---,1.70,VWS V14.01,2013-01-13 23:36:00,
2013-01-13 17:41:00,37.6,37.1,29.95,NW,309,0.0,3.0,98,0.10,,---,1.71,VWS V14.01,2013-01-13 23:41:00,
2013-01-13 17:46:00,37.6,37.1,29.95,NW,323,1.0,3.0,98,0.10,,---,1.71,VWS V14.01,2013-01-13 23:46:00,
2013-01-13 17:51:00,37.5,37.0,29.95,West,281,1.0,3.0,98,0.10,,---,1.71,VWS V14.01,2013-01-13 23:51:00,
2013-01-13 17:56:00,37.4,36.9,29.95,North,359,2.0,3.0,98,0.10,,---,1.71,VWS V14.01,2013-01-13 23:56:00,
2013-01-13 18:00:00,37.4,36.9,29.95,WNW,300,0.0,3.0,98,0.10,,---,1.71,VWS V14.01,2013-01-14 00:00:00,
2013-01-13 18:01:00,37.3,36.8,29.94,NNE,15,1.0,2.0,98,0.06,,---,1.72,VWS V14.01,2013-01-14 00:01:00,
2013-01-13 18:06:00,37.0,36.2,29.93,West,261,0.0,3.0,97,0.06,,---,1.72,VWS V14.01,2013-01-14 00:06:00,
2013-01-13 18:11:00,36.9,36.1,29.94,WNW,283,4.0,4.0,97,0.06,,---,1.72,VWS V14.01,2013-01-14 00:11:00,
2013-01-13 18:16:00,36.8,36.0,29.94,NW,316,1.0,4.0,97,0.06,,---,1.72,VWS V14.01,2013-01-14 00:16:00,
2013-01-13 18:21:00,36.8,36.3,29.94,NNW,330,0.0,4.0,98,0.06,,---,1.72,VWS V14.01,2013-01-14 00:21:00,
2013-01-13 18:26:00,36.8,36.3,29.94,WNW,301,0.0,4.0,98,0.07,,---,1.73,VWS V14.01,2013-01-14 00:26:00,
2013-01-13 18:30:00,36.8,36.3,29.95,WSW,248,2.0,5.0,98,0.07,,---,1.73,VWS V14.01,2013-01-14 00:30:00,
2013-01-13 18:31:00,36.7,36.2,29.95,West,281,2.0,5.0,98,0.03,,---,1.73,VWS V14.01,2013-01-14 00:31:00,
2013-01-13 18:36:00,36.7,36.2,29.95,NNW,333,2.0,5.0,98,0.04,,---,1.74,VWS V14.01,2013-01-14 00:36:00,
2013-01-13 18:41:00,36.5,36.0,29.96,WNW,291,5.0,6.0,98,0.04,,---,1.74,VWS V14.01,2013-01-14 00:41:00,
2013-01-13 18:46:00,36.4,35.9,29.97,WNW,294,3.0,6.0,98,0.04,,---,1.74,VWS V14.01,2013-01-14 00:46:00,
2013-01-13 18:51:00,36.3,35.8,29.97,WSW,253,4.0,7.0,98,0.04,,---,1.74,VWS V14.01,2013-01-14 00:51:00,
2013-01-13 18:56:00,36.3,35.8,29.97,West,278,1.0,9.0,98,0.04,,---,1.74,VWS V14.01,2013-01-14 00:56:00,
2013-01-13 19:00:00,36.3,35.8,29.97,WNW,297,3.0,9.0,98,0.04,,---,1.74,VWS V14.01,2013-01-14 01:00:00,
2013-01-13 19:01:00,36.2,35.7,29.97,WNW,289,5.0,6.0,98,0.04,,---,1.75,VWS V14.01,2013-01-14 01:01:00,
2013-01-13 19:06:00,36.1,35.6,29.97,West,281,0.0,6.0,98,0.04,,---,1.75,VWS V14.01,2013-01-14 01:06:00,
2013-01-13 19:11:00,36.1,35.6,29.97,West,280,2.0,6.0,98,0.04,,---,1.75,VWS V14.01,2013-01-14 01:11:00,
2013-01-13 19:16:00,36.1,35.6,29.97,NW,307,3.0,6.0,98,0.04,,---,1.75,VWS V14.01,2013-01-14 01:16:00,
2013-01-13 19:21:00,36.0,35.5,29.97,WNW,298,2.0,6.0,98,0.04,,---,1.75,VWS V14.01,2013-01-14 01:21:00,
2013-01-13 19:26:00,36.0,35.5,29.98,WNW,283,2.0,6.0,98,0.04,,---,1.75,VWS V14.01,2013-01-14 01:26:00,
2013-01-13 19:30:00,36.0,35.5,29.98,WSW,249,1.0,6.0,98,0.04,,---,1.75,VWS V14.01,2013-01-14 01:30:00,
2013-01-13 19:31:00,36.0,35.5,29.98,WNW,285,3.0,7.0,98,0.02,,---,1.75,VWS V14.01,2013-01-14 01:31:00,
2013-01-13 19:36:00,35.9,35.4,29.97,WNW,300,4.0,8.0,98,0.02,,---,1.75,VWS V14.01,2013-01-14 01:36:00,
2013-01-13 19:41:00,35.9,35.4,29.97,West,269,4.0,8.0,98,0.02,,---,1.75,VWS V14.01,2013-01-14 01:41:00,
2013-01-13 19:46:00,35.8,35.3,29.97,NW,304,2.0,8.0,98,0.02,,---,1.75,VWS V14.01,2013-01-14 01:46:00,
2013-01-13 19:51:00,35.8,35.3,29.97,WNW,293,3.0,9.0,98,0.02,,---,1.75,VWS V14.01,2013-01-14 01:51:00,
2013-01-13 19:56:00,35.8,35.3,29.97,WNW,284,3.0,9.0,98,0.02,,---,1.75,VWS V14.01,2013-01-14 01:56:00,
2013-01-13 20:00:00,35.8,35.3,29.98,NW,305,3.0,9.0,98,0.02,,---,1.75,VWS V14.01,2013-01-14 02:00:00,
2013-01-13 20:01:00,35.8,35.3,29.98,WNW,283,4.0,8.0,98,0.02,,---,1.76,VWS V14.01,2013-01-14 02:01:00,
2013-01-13 20:06:00,35.7,34.9,29.99,WNW,300,11.0,11.0,97,0.02,,---,1.76,VWS V14.01,2013-01-14 02:06:00,
2013-01-13 20:11:00,35.7,34.9,29.99,WNW,294,6.0,11.0,97,0.02,,---,1.76,VWS V14.01,2013-01-14 02:11:00,
2013-01-13 20:16:00,35.6,34.8,30.00,WNW,293,5.0,13.0,97,0.02,,---,1.76,VWS V14.01,2013-01-14 02:16:00,
2013-01-13 20:21:00,35.3,34.5,30.00,West,260,7.0,13.0,97,0.02,,---,1.76,VWS V14.01,2013-01-14 02:21:00,
2013-01-13 20:26:00,34.9,33.9,30.01,West,271,3.0,13.0,96,0.02,,---,1.76,VWS V14.01,2013-01-14 02:26:00,
2013-01-13 20:30:00,34.8,33.8,30.01,WNW,289,4.0,13.0,96,0.02,,---,1.76,VWS V14.01,2013-01-14 02:30:00,
2013-01-13 20:31:00,34.7,33.7,30.01,WSW,246,3.0,8.0,96,0.01,,---,1.76,VWS V14.01,2013-01-14 02:31:00,
2013-01-13 20:36:00,34.5,33.5,30.01,WNW,288,5.0,12.0,96,0.01,,---,1.76,VWS V14.01,2013-01-14 02:36:00,
2013-01-13 20:41:00,34.4,33.4,30.02,West,266,2.0,12.0,96,0.01,,---,1.76,VWS V14.01,2013-01-14 02:41:00,
2013-01-13 20:46:00,34.3,33.3,30.02,NW,305,1.0,12.0,96,0.01,,---,1.76,VWS V14.01,2013-01-14 02:46:00,
2013-01-13 20:51:00,34.2,33.2,30.02,West,273,3.0,13.0,96,0.02,,---,1.77,VWS V14.01,2013-01-14 02:51:00,
2013-01-13 20:56:00,34.0,33.0,30.02,WNW,293,6.0,13.0,96,0.02,,---,1.77,VWS V14.01,2013-01-14 02:56:00,
2013-01-13 21:00:00,34.0,33.0,30.02,WNW,291,9.0,13.0,96,0.02,,---,1.77,VWS V14.01,2013-01-14 03:00:00,
2013-01-13 21:01:00,33.9,32.9,30.01,NNW,337,3.0,9.0,96,0.02,,---,1.77,VWS V14.01,2013-01-14 03:01:00,
2013-01-13 21:06:00,33.7,32.7,30.02,WNW,301,5.0,10.0,96,0.02,,---,1.77,VWS V14.01,2013-01-14 03:06:00,
2013-01-13 21:11:00,33.4,32.1,30.01,West,267,2.0,12.0,95,0.02,,---,1.77,VWS V14.01,2013-01-14 03:11:00,
2013-01-13 21:16:00,33.3,32.0,30.02,WNW,288,4.0,12.0,95,0.02,,---,1.77,VWS V14.01,2013-01-14 03:16:00,
2013-01-13 21:21:00,33.3,32.0,30.03,WNW,284,2.0,12.0,95,0.02,,---,1.77,VWS V14.01,2013-01-14 03:21:00,
2013-01-13 21:26:00,33.2,31.9,30.02,WNW,291,8.0,12.0,95,0.02,,---,1.77,VWS V14.01,2013-01-14 03:26:00,
2013-01-13 21:30:00,33.2,31.9,30.03,WNW,288,1.0,12.0,95,0.02,,---,1.77,VWS V14.01,2013-01-14 03:30:00,
2013-01-13 21:31:00,33.2,31.9,30.03,NW,315,4.0,6.0,95,0.01,,---,1.77,VWS V14.01,2013-01-14 03:31:00,
2013-01-13 21:36:00,33.2,31.9,30.04,West,273,4.0,8.0,95,0.01,,---,1.77,VWS V14.01,2013-01-14 03:36:00,
2013-01-13 21:41:00,33.2,31.7,30.04,West,274,4.0,8.0,94,0.01,,---,1.77,VWS V14.01,2013-01-14 03:41:00,
2013-01-13 21:46:00,33.2,31.9,30.05,SW,233,6.0,8.0,95,0.01,,---,1.77,VWS V14.01,2013-01-14 03:46:00,
2013-01-13 21:51:00,33.2,31.7,30.05,West,271,5.0,8.0,94,0.01,,---,1.77,VWS V14.01,2013-01-14 03:51:00,
2013-01-13 21:56:00,33.2,31.7,30.06,WNW,285,4.0,11.0,94,0.01,,---,1.77,VWS V14.01,2013-01-14 03:56:00,
2013-01-13 22:00:00,33.1,31.6,30.05,WSW,257,3.0,11.0,94,0.01,,---,1.77,VWS V14.01,2013-01-14 04:00:00,
2013-01-13 22:01:00,33.1,31.6,30.06,West,276,4.0,9.0,94,0.00,,---,1.77,VWS V14.01,2013-01-14 04:01:00,
2013-01-13 22:06:00,33.1,31.3,30.07,WNW,284,2.0,11.0,93,0.00,,---,1.77,VWS V14.01,2013-01-14 04:06:00,
2013-01-13 22:11:00,33.1,31.0,30.07,WNW,301,9.0,11.0,92,0.00,,---,1.77,VWS V14.01,2013-01-14 04:11:00,
2013-01-13 22:16:00,33.0,30.9,30.07,SW,231,11.0,13.0,92,0.00,,---,1.77,VWS V14.01,2013-01-14 04:16:00,
2013-01-13 22:21:00,33.0,30.9,30.07,West,264,7.0,13.0,92,0.00,,---,1.77,VWS V14.01,2013-01-14 04:21:00,
2013-01-13 22:26:00,32.9,30.8,30.07,WSW,250,9.0,13.0,92,0.00,,---,1.77,VWS V14.01,2013-01-14 04:26:00,
2013-01-13 22:30:00,32.8,30.5,30.07,WSW,257,5.0,13.0,91,0.00,,---,1.77,VWS V14.01,2013-01-14 04:30:00,
2013-01-13 22:31:00,32.7,30.4,30.07,West,281,6.0,12.0,91,0.00,,---,1.77,VWS V14.01,2013-01-14 04:31:00,
2013-01-13 22:36:00,32.5,30.2,30.08,WSW,256,6.0,12.0,91,0.00,,---,1.77,VWS V14.01,2013-01-14 04:36:00,
2013-01-13 22:41:00,32.3,30.0,30.08,West,265,2.0,12.0,91,0.00,,---,1.77,VWS V14.01,2013-01-14 04:41:00,
2013-01-13 22:46:00,32.2,29.6,30.08,WSW,256,5.0,13.0,90,0.00,,---,1.77,VWS V14.01,2013-01-14 04:46:00,
2013-01-13 22:51:00,32.0,29.7,30.08,NW,309,9.0,13.0,91,0.00,,---,1.77,VWS V14.01,2013-01-14 04:51:00,
2013-01-13 22:56:00,31.9,29.6,30.09,WNW,283,6.0,13.0,91,0.00,,---,1.77,VWS V14.01,2013-01-14 04:56:00,
2013-01-13 23:00:00,31.7,29.4,30.09,West,263,5.0,7.0,91,0.00,,---,0.00,VWS V14.01,2013-01-14 05:00:00,
2013-01-13 23:01:00,31.7,29.4,30.09,West,273,10.0,10.0,91,0.00,,---,0.00,VWS V14.01,2013-01-14 05:01:00,
2013-01-13 23:02:00,31.7,29.4,30.09,WNW,290,5.0,11.0,91,0.00,,---,0.00,VWS V14.01,2013-01-14 05:02:00,
2013-01-13 23:07:00,31.5,28.9,30.09,WNW,287,6.0,15.0,90,0.00,,---,0.00,VWS V14.01,2013-01-14 05:07:00,
2013-01-13 23:12:00,31.3,28.2,30.09,NW,312,5.0,17.0,88,0.00,,---,0.00,VWS V14.01,2013-01-14 05:12:00,
2013-01-13 23:17:00,31.1,27.7,30.10,West,281,10.0,17.0,87,0.00,,---,0.00,VWS V14.01,2013-01-14 05:17:00,
2013-01-13 23:22:00,30.9,27.2,30.10,West,277,11.0,17.0,86,0.00,,---,0.00,VWS V14.01,2013-01-14 05:22:00,
2013-01-13 23:27:00,30.9,27.2,30.10,WNW,294,7.0,17.0,86,0.00,,---,0.00,VWS V14.01,2013-01-14 05:27:00,
2013-01-13 23:30:00,30.9,27.2,30.11,West,269,15.0,17.0,86,0.00,,---,0.00,VWS V14.01,2013-01-14 05:30:00,
2013-01-13 23:32:00,30.9,27.5,30.10,WSW,238,4.0,15.0,87,0.00,,---,0.00,VWS V14.01,2013-01-14 05:32:00,
2013-01-13 23:37:00,30.8,27.4,30.11,WNW,294,2.0,15.0,87,0.00,,---,0.00,VWS V14.01,2013-01-14 05:37:00,
2013-01-13 23:42:00,30.8,27.4,30.11,WNW,290,4.0,16.0,87,0.00,,---,0.00,VWS V14.01,2013-01-14 05:42:00,
2013-01-13 23:47:00,30.7,27.0,30.11,WNW,287,8.0,16.0,86,0.00,,---,0.00,VWS V14.01,2013-01-14 05:47:00,
2013-01-13 23:52:00,30.6,26.9,30.12,West,278,4.0,16.0,86,0.00,,---,0.00,VWS V14.01,2013-01-14 05:52:00,
2013-01-13 23:57:00,30.6,26.9,30.12,West,264,4.0,16.0,86,0.00,,---,0.00,VWS V14.01,2013-01-14 05:57:00,